Time;durP1;ratioP1;P1;durP2;ratioP2;P2;SDS_P1;SDS_P2;PMS_P1;PMS_P2;Temp;Humidity;BMP_temperature;BMP_pressure;BME280_temperature;BME280_humidity;BME280_pressure;Samples;Min_cycle;Max_cycle;Signal;HPM_P1;HPM_P2
2021/07/16 00:01:54;;;;;;;8.13;4.75;;;22.90;99.90;;;;;;5040190;28;20442;-67
2021/07/16 00:04:20;;;;;;;8.30;4.72;;;22.90;99.90;;;;;;5045778;28;20082;-66
2021/07/16 00:06:47;;;;;;;9.73;4.47;;;22.80;99.90;;;;;;5036207;28;20045;-56
2021/07/16 00:09:13;;;;;;;8.18;4.68;;;22.80;99.90;;;;;;5021801;28;20445;-67
2021/07/16 00:11:38;;;;;;;6.72;4.88;;;22.80;99.90;;;;;;5025815;28;20444;-66
2021/07/16 00:14:05;;;;;;;9.95;4.68;;;22.80;99.90;;;;;;5021658;28;20044;-67
2021/07/16 00:16:31;;;;;;;7.50;4.13;;;22.80;99.90;;;;;;5031603;28;20053;-66
2021/07/16 00:18:57;;;;;;;7.28;4.00;;;22.70;99.90;;;;;;5035719;28;20158;-66
2021/07/16 00:21:22;;;;;;;6.53;5.18;;;22.80;99.90;;;;;;5028321;28;20128;-66
2021/07/16 00:23:48;;;;;;;10.38;4.45;;;22.70;99.90;;;;;;5029824;28;20037;-66
2021/07/16 00:26:54;;;;;;;7.32;4.60;;;22.70;99.90;;;;;;5024296;28;20068;-67
2021/07/16 00:29:20;;;;;;;9.65;4.18;;;22.70;99.90;;;;;;4974501;28;20044;-67
2021/07/16 00:31:45;;;;;;;6.40;4.10;;;22.70;99.90;;;;;;5045965;28;20037;-66
2021/07/16 00:34:13;;;;;;;11.98;5.15;;;22.70;99.90;;;;;;5043464;28;20041;-67
2021/07/16 00:36:39;;;;;;;7.53;4.65;;;22.70;99.90;;;;;;5028524;28;20064;-66
2021/07/16 00:39:04;;;;;;;6.88;4.43;;;22.60;99.90;;;;;;5037290;28;20064;-66
2021/07/16 00:41:30;;;;;;;6.70;4.32;;;22.60;99.90;;;;;;5023462;28;20033;-67
2021/07/16 00:43:55;;;;;;;5.72;4.15;;;22.50;99.90;;;;;;5027784;28;20064;-66
2021/07/16 00:46:21;;;;;;;8.30;4.30;;;22.60;99.90;;;;;;5029178;28;20037;-66
2021/07/16 00:48:47;;;;;;;5.63;4.40;;;22.60;99.90;;;;;;5011044;28;20049;-65
2021/07/16 00:51:13;;;;;;;7.18;3.95;;;22.50;99.90;;;;;;5024815;28;20041;-67
2021/07/16 00:53:39;;;;;;;6.38;4.13;;;22.50;99.90;;;;;;5024083;28;20033;-67
2021/07/16 00:56:05;;;;;;;4.20;3.75;;;22.50;99.90;;;;;;5032603;28;20034;-67
2021/07/16 00:58:31;;;;;;;4.50;3.88;;;22.50;99.90;;;;;;5040023;28;20148;-67
2021/07/16 01:00:57;;;;;;;6.13;4.53;;;22.50;99.90;;;;;;5020997;28;20033;-66
2021/07/16 01:06:44;;;;;;;7.15;4.20;;;22.40;99.90;;;;;;5011729;28;20565;-67
2021/07/16 01:09:10;;;;;;;9.98;4.22;;;22.40;99.90;;;;;;5043500;28;20461;-67
2021/07/16 01:11:36;;;;;;;6.55;4.32;;;22.40;99.90;;;;;;5034465;28;20056;-67
2021/07/16 01:14:02;;;;;;;7.70;4.03;;;22.40;99.90;;;;;;5042452;28;20037;-67
2021/07/16 01:16:28;;;;;;;6.35;3.78;;;22.40;99.90;;;;;;5035581;28;20452;-67
2021/07/16 01:18:54;;;;;;;8.15;4.13;;;22.40;99.90;;;;;;5037793;28;20065;-66
2021/07/16 01:21:22;;;;;;;8.30;4.28;;;22.30;99.90;;;;;;5040338;28;20060;-67
2021/07/16 01:23:48;;;;;;;6.75;4.60;;;22.30;99.90;;;;;;5036343;28;20037;-59
2021/07/16 01:26:14;;;;;;;9.15;4.50;;;22.30;99.90;;;;;;5044341;28;20036;-67
2021/07/16 01:28:40;;;;;;;9.18;5.32;;;22.20;99.90;;;;;;5026298;28;20410;-66
2021/07/16 01:31:07;;;;;;;8.40;4.60;;;22.30;99.90;;;;;;5037384;28;20037;-67
2021/07/16 01:33:33;;;;;;;7.80;4.35;;;22.30;99.90;;;;;;5039470;28;20056;-67
2021/07/16 01:35:59;;;;;;;7.82;4.40;;;22.20;99.90;;;;;;5029382;28;20407;-67
2021/07/16 01:38:26;;;;;;;6.38;4.72;;;22.20;99.90;;;;;;5027034;28;20030;-67
2021/07/16 01:40:52;;;;;;;6.78;3.72;;;22.20;99.90;;;;;;5026454;28;20046;-66
2021/07/16 01:43:18;;;;;;;10.93;4.53;;;22.20;99.90;;;;;;5030109;28;20551;-67
2021/07/16 01:45:44;;;;;;;7.20;4.32;;;22.20;99.90;;;;;;5041094;28;20120;-68
2021/07/16 01:48:12;;;;;;;9.27;4.80;;;22.20;99.90;;;;;;5032936;28;20047;-67
2021/07/16 01:50:48;;;;;;;7.63;4.28;;;22.20;99.90;;;;;;5025750;28;20044;-67
2021/07/16 01:53:18;;;;;;;5.22;4.18;;;22.20;99.90;;;;;;5035402;28;20052;-67
2021/07/16 01:55:44;;;;;;;4.30;3.83;;;22.10;99.90;;;;;;5042190;28;20037;-68
2021/07/16 01:58:25;;;;;;;6.28;4.10;;;22.10;99.90;;;;;;5021091;28;20034;-68
2021/07/16 02:00:50;;;;;;;5.97;3.83;;;22.10;99.90;;;;;;5040780;28;20065;-67
2021/07/16 02:03:18;;;;;;;6.88;4.22;;;22.10;99.90;;;;;;5049023;28;20099;-68
2021/07/16 02:05:45;;;;;;;5.85;4.32;;;22.00;99.90;;;;;;5053882;28;20394;-67
2021/07/16 02:08:23;;;;;;;6.13;4.28;;;22.00;99.90;;;;;;5025048;28;20037;-68
2021/07/16 02:10:55;;;;;;;9.38;3.92;;;22.00;99.90;;;;;;5025298;28;20140;-67
2021/07/16 02:13:21;;;;;;;6.90;4.05;;;21.90;99.90;;;;;;5024930;28;20037;-67
2021/07/16 02:15:49;;;;;;;4.40;4.00;;;21.90;99.90;;;;;;5030631;28;20092;-66
2021/07/16 02:18:16;;;;;;;5.95;3.78;;;21.90;99.90;;;;;;5042230;28;20043;-67
2021/07/16 02:20:43;;;;;;;7.70;4.22;;;21.90;99.90;;;;;;5029229;28;20096;-67
2021/07/16 02:23:19;;;;;;;9.00;5.22;;;21.90;99.90;;;;;;5038723;28;20470;-67
2021/07/16 02:25:45;;;;;;;6.03;3.65;;;21.90;99.90;;;;;;5043942;28;22033;-67
2021/07/16 02:28:31;;;;;;;6.18;3.70;;;22.00;99.90;;;;;;5031711;28;20048;-67
2021/07/16 02:30:59;;;;;;;4.97;3.75;;;22.00;99.90;;;;;;5004885;28;20032;-67
2021/07/16 02:33:25;;;;;;;6.38;4.22;;;21.90;99.90;;;;;;5047198;28;20642;-67
2021/07/16 02:35:51;;;;;;;4.03;3.60;;;21.90;99.90;;;;;;5040686;28;20042;-67
2021/07/16 02:38:17;;;;;;;7.28;4.18;;;22.00;99.90;;;;;;5037228;28;20558;-64
2021/07/16 02:40:45;;;;;;;7.13;3.92;;;21.90;99.90;;;;;;5028395;28;20123;-67
2021/07/16 02:43:11;;;;;;;4.78;3.67;;;21.90;99.90;;;;;;5042696;28;20049;-67
2021/07/16 02:45:37;;;;;;;6.75;3.90;;;21.90;99.90;;;;;;5034412;28;20049;-67
2021/07/16 02:48:03;;;;;;;6.18;4.57;;;21.80;99.90;;;;;;5030926;28;20487;-67
2021/07/16 02:50:37;;;;;;;4.47;3.35;;;21.90;99.90;;;;;;5025089;28;20132;-67
2021/07/16 02:53:07;;;;;;;9.07;4.22;;;21.90;99.90;;;;;;5023342;28;20358;-67
2021/07/16 02:55:35;;;;;;;4.88;3.55;;;21.80;99.90;;;;;;5035463;28;20505;-67
2021/07/16 02:58:10;;;;;;;4.57;3.40;;;21.80;99.90;;;;;;5044123;28;20037;-67
2021/07/16 03:00:36;;;;;;;5.15;3.20;;;21.80;99.90;;;;;;5037553;28;20088;-67
2021/07/16 03:03:03;;;;;;;10.25;4.40;;;21.70;99.90;;;;;;5036831;28;20048;-67
2021/07/16 03:05:32;;;;;;;6.68;3.42;;;21.80;99.90;;;;;;5041121;28;20075;-67
2021/07/16 03:07:59;;;;;;;7.38;4.10;;;21.80;99.90;;;;;;5044540;28;20118;-67
2021/07/16 03:10:31;;;;;;;6.53;3.53;;;21.70;99.90;;;;;;5044683;28;20085;-67
2021/07/16 03:12:58;;;;;;;7.13;3.20;;;21.80;99.90;;;;;;5027403;28;20380;-68
2021/07/16 03:15:26;;;;;;;6.38;3.83;;;21.80;99.90;;;;;;5031195;28;20049;-67
2021/07/16 03:17:55;;;;;;;9.98;4.82;;;21.80;99.90;;;;;;5033564;28;20048;-68
2021/07/16 03:20:24;;;;;;;8.48;4.22;;;21.80;99.90;;;;;;5030285;28;20057;-67
2021/07/16 03:22:50;;;;;;;5.28;3.67;;;21.80;99.90;;;;;;5031760;28;20401;-67
2021/07/16 03:25:18;;;;;;;4.68;3.28;;;21.90;99.90;;;;;;5039413;28;20029;-67
2021/07/16 03:27:44;;;;;;;6.38;3.85;;;21.80;99.90;;;;;;5029341;28;20820;-67
2021/07/16 03:30:13;;;;;;;6.20;3.90;;;21.80;99.90;;;;;;5051355;28;20490;-68
2021/07/16 03:32:38;;;;;;;7.93;4.25;;;21.80;99.90;;;;;;5033886;28;20033;-67
2021/07/16 03:35:05;;;;;;;5.20;3.67;;;21.70;99.90;;;;;;5034723;28;20056;-68
2021/07/16 03:37:31;;;;;;;7.43;4.15;;;21.70;99.90;;;;;;5031281;28;20038;-67
2021/07/16 03:39:57;;;;;;;8.60;4.22;;;21.70;99.90;;;;;;5031830;28;20041;-68
2021/07/16 03:42:22;;;;;;;7.28;4.18;;;21.70;99.90;;;;;;5026543;28;20387;-67
2021/07/16 03:44:48;;;;;;;7.25;4.30;;;21.60;99.90;;;;;;5059279;28;20044;-67
2021/07/16 03:47:17;;;;;;;5.90;4.47;;;21.50;99.90;;;;;;5019675;28;20033;-68
2021/07/16 03:49:44;;;;;;;5.90;3.30;;;21.50;99.90;;;;;;5038045;28;20049;-68
2021/07/16 03:52:11;;;;;;;7.78;4.15;;;21.50;99.90;;;;;;5026665;28;20045;-67
2021/07/16 03:54:37;;;;;;;5.63;2.85;;;21.50;99.90;;;;;;5043399;28;20044;-67
2021/07/16 03:57:05;;;;;;;3.60;3.17;;;21.50;99.90;;;;;;5033372;28;20128;-67
2021/07/16 03:59:31;;;;;;;3.60;2.90;;;21.50;99.90;;;;;;5031418;28;20498;-67
2021/07/16 04:01:57;;;;;;;7.63;4.18;;;21.40;99.90;;;;;;5026101;28;20144;-68
2021/07/16 04:04:22;;;;;;;6.43;3.45;;;21.40;99.90;;;;;;5026097;28;20112;-68
2021/07/16 04:06:53;;;;;;;5.10;3.28;;;21.50;99.90;;;;;;5030065;28;20040;-67
2021/07/16 04:09:26;;;;;;;8.05;4.50;;;21.40;99.90;;;;;;5037847;28;20517;-67
2021/07/16 04:12:05;;;;;;;8.57;3.88;;;21.40;99.90;;;;;;5035277;28;20037;-69
2021/07/16 04:14:34;;;;;;;6.72;3.83;;;21.50;99.90;;;;;;5042868;28;20079;-67
2021/07/16 04:16:59;;;;;;;6.90;3.80;;;21.40;99.90;;;;;;5045768;28;20486;-67
2021/07/16 04:19:25;;;;;;;6.35;3.50;;;21.40;99.90;;;;;;5029836;28;20128;-68
2021/07/16 04:21:50;;;;;;;7.35;3.85;;;21.40;99.90;;;;;;5029794;28;20585;-68
2021/07/16 04:24:16;;;;;;;5.07;3.10;;;21.50;99.90;;;;;;5026735;28;20108;-69
2021/07/16 04:26:41;;;;;;;5.68;3.45;;;21.40;99.90;;;;;;5021376;28;20025;-67
2021/07/16 04:29:07;;;;;;;4.20;3.67;;;21.40;99.90;;;;;;5033269;28;20056;-67
2021/07/16 04:31:33;;;;;;;6.97;3.90;;;21.40;99.90;;;;;;5042579;28;20033;-68
2021/07/16 04:33:58;;;;;;;6.60;3.50;;;21.40;99.90;;;;;;5028050;28;20471;-67
2021/07/16 04:36:24;;;;;;;5.20;3.63;;;21.40;99.90;;;;;;5026085;28;20041;-67
2021/07/16 04:38:49;;;;;;;5.57;3.63;;;21.40;99.90;;;;;;5039777;28;20062;-67
2021/07/16 04:41:15;;;;;;;6.53;3.20;;;21.50;99.90;;;;;;5033931;28;20037;-68
2021/07/16 04:43:40;;;;;;;6.28;3.55;;;21.40;99.90;;;;;;5044202;28;20036;-68
2021/07/16 04:46:06;;;;;;;5.40;3.58;;;21.50;99.90;;;;;;5027431;28;20594;-68
2021/07/16 04:48:43;;;;;;;6.55;3.60;;;21.50;99.90;;;;;;5028963;28;20033;-67
2021/07/16 04:51:09;;;;;;;8.93;3.55;;;21.40;99.90;;;;;;5032179;28;20075;-68
2021/07/16 04:53:35;;;;;;;4.15;3.40;;;21.40;99.90;;;;;;5031458;28;20527;-69
2021/07/16 04:56:00;;;;;;;7.82;4.03;;;21.40;99.90;;;;;;5028700;28;20032;-68
2021/07/16 04:58:26;;;;;;;8.50;4.00;;;21.50;99.90;;;;;;5043574;28;20411;-68
2021/07/16 05:00:51;;;;;;;4.57;3.20;;;21.50;99.90;;;;;;5034368;28;20045;-67
2021/07/16 05:03:17;;;;;;;4.07;3.15;;;21.40;99.90;;;;;;5026223;28;20034;-61
2021/07/16 05:05:42;;;;;;;7.85;3.30;;;21.50;99.90;;;;;;5013017;28;20102;-68
2021/07/16 05:08:08;;;;;;;7.13;3.88;;;21.50;99.90;;;;;;5035149;28;20049;-68
2021/07/16 05:10:34;;;;;;;7.85;3.80;;;21.50;99.90;;;;;;5045111;28;20033;-69
2021/07/16 05:12:59;;;;;;;5.10;4.20;;;21.50;99.90;;;;;;5029978;28;20492;-68
2021/07/16 05:15:25;;;;;;;6.22;3.53;;;21.50;99.90;;;;;;5020079;28;20037;-68
2021/07/16 05:17:51;;;;;;;4.18;3.45;;;21.60;99.90;;;;;;5031472;28;20107;-67
2021/07/16 05:20:17;;;;;;;4.78;2.75;;;21.60;99.90;;;;;;5040883;28;20049;-68
2021/07/16 05:22:42;;;;;;;2.90;2.50;;;21.60;99.90;;;;;;5025685;28;20045;-68
2021/07/16 05:25:08;;;;;;;2.92;2.33;;;21.70;99.90;;;;;;5031111;28;20120;-68
2021/07/16 05:27:34;;;;;;;4.53;2.60;;;21.70;99.90;;;;;;5037447;28;20104;-67
2021/07/16 05:29:59;;;;;;;4.88;2.35;;;21.80;99.90;;;;;;5031592;28;20402;-67
2021/07/16 05:32:28;;;;;;;6.65;2.58;;;21.70;99.90;;;;;;5034737;28;20045;-67
2021/07/16 05:34:54;;;;;;;5.20;2.15;;;21.80;99.90;;;;;;5015267;28;20056;-67
2021/07/16 05:37:19;;;;;;;4.13;2.22;;;21.80;99.90;;;;;;5027442;28;20474;-67
2021/07/16 05:39:45;;;;;;;4.68;2.88;;;21.80;99.90;;;;;;5029676;28;20132;-67
2021/07/16 05:42:10;;;;;;;2.53;2.28;;;21.80;99.90;;;;;;5024934;28;20029;-67
2021/07/16 05:44:36;;;;;;;2.60;2.38;;;21.90;99.90;;;;;;5028542;28;20471;-68
2021/07/16 05:47:02;;;;;;;3.75;2.45;;;21.90;99.90;;;;;;5018581;28;20047;-67
2021/07/16 05:49:28;;;;;;;3.42;2.60;;;22.00;99.90;;;;;;5040713;28;20033;-67
2021/07/16 05:51:53;;;;;;;6.38;2.40;;;22.00;99.90;;;;;;5033127;28;20033;-65
2021/07/16 05:54:19;;;;;;;4.60;3.15;;;22.00;99.90;;;;;;5025457;28;20043;-65
2021/07/16 05:56:45;;;;;;;6.93;3.03;;;22.00;99.90;;;;;;5046121;28;20037;-66
2021/07/16 05:59:11;;;;;;;3.50;2.78;;;22.10;99.90;;;;;;5030429;28;20052;-66
2021/07/16 06:01:37;;;;;;;5.25;2.70;;;22.10;99.90;;;;;;5046998;28;20037;-66
2021/07/16 06:04:09;;;;;;;5.13;2.42;;;22.10;99.90;;;;;;5031092;28;20487;-65
2021/07/16 06:06:38;;;;;;;4.32;2.25;;;22.10;99.90;;;;;;5030044;28;20060;-67
2021/07/16 06:09:05;;;;;;;4.10;2.83;;;22.20;99.90;;;;;;5028023;28;20033;-67
2021/07/16 06:11:32;;;;;;;3.38;2.95;;;22.20;99.90;;;;;;5050974;28;20442;-65
2021/07/16 06:13:58;;;;;;;12.02;3.03;;;22.20;99.90;;;;;;5022420;28;20498;-65
2021/07/16 06:16:33;;;;;;;3.67;3.05;;;22.30;99.90;;;;;;5039456;28;20045;-65
2021/07/16 06:18:59;;;;;;;7.00;3.30;;;22.30;99.90;;;;;;4992045;28;20054;-66
2021/07/16 06:21:25;;;;;;;7.95;3.85;;;22.20;99.90;;;;;;4995719;28;20042;-66
2021/07/16 06:23:52;;;;;;;8.93;4.00;;;22.30;99.90;;;;;;4989926;28;20378;-67
2021/07/16 06:26:18;;;;;;;6.57;4.38;;;22.30;99.90;;;;;;4991854;28;20035;-60
2021/07/16 06:28:43;;;;;;;6.40;5.22;;;22.40;99.90;;;;;;5007617;28;20620;-68
2021/07/16 06:31:40;;;;;;;7.97;5.25;;;22.40;99.90;;;;;;4996232;28;20121;-67
2021/07/16 06:34:06;;;;;;;8.70;5.30;;;22.40;99.90;;;;;;4973673;28;20518;-67
2021/07/16 06:36:31;;;;;;;7.80;5.05;;;22.40;99.90;;;;;;5005397;28;20117;-67
2021/07/16 06:38:57;;;;;;;6.90;4.38;;;22.60;99.90;;;;;;5021322;28;20137;-67
2021/07/16 06:41:22;;;;;;;10.43;6.22;;;22.60;99.90;;;;;;5006383;28;20416;-66
2021/07/16 06:43:48;;;;;;;6.10;5.40;;;22.60;99.90;;;;;;4999151;28;20087;-67
2021/07/16 06:46:14;;;;;;;7.32;5.60;;;22.60;99.90;;;;;;5007911;28;20411;-66
2021/07/16 06:48:43;;;;;;;7.38;5.68;;;22.60;99.90;;;;;;5008988;28;20049;-67
2021/07/16 06:51:12;;;;;;;7.78;5.20;;;22.70;99.90;;;;;;5002232;28;20052;-67
2021/07/16 06:53:38;;;;;;;9.07;6.47;;;22.70;99.90;;;;;;5000507;28;20050;-67
2021/07/16 06:56:04;;;;;;;9.40;5.50;;;22.80;99.90;;;;;;4987507;28;20106;-67
2021/07/16 06:58:30;;;;;;;6.50;4.65;;;22.90;99.90;;;;;;5003083;28;20451;-67
2021/07/16 07:00:56;;;;;;;8.75;5.50;;;22.90;99.90;;;;;;4999508;28;20045;-67
2021/07/16 07:03:28;;;;;;;8.23;5.32;;;22.90;99.80;;;;;;4994014;28;20345;-67
2021/07/16 07:05:55;;;;;;;10.65;5.15;;;23.10;99.90;;;;;;5002948;28;20038;-67
2021/07/16 07:08:21;;;;;;;6.93;4.68;;;23.10;99.20;;;;;;5007118;28;20042;-67
2021/07/16 07:10:47;;;;;;;9.70;4.78;;;23.20;99.10;;;;;;4998130;28;20048;-68
2021/07/16 07:13:13;;;;;;;4.65;3.72;;;23.20;98.70;;;;;;5016333;28;20045;-68
2021/07/16 07:15:38;;;;;;;4.68;4.10;;;23.30;98.40;;;;;;4994516;28;20042;-67
2021/07/16 07:18:05;;;;;;;12.00;4.40;;;23.40;98.20;;;;;;5025322;28;20067;-66
2021/07/16 07:20:32;;;;;;;7.22;3.97;;;23.40;98.00;;;;;;5023969;28;20049;-67
2021/07/16 07:22:59;;;;;;;8.20;3.95;;;23.50;96.80;;;;;;5031802;28;20120;-67
2021/07/16 07:25:25;;;;;;;3.80;3.30;;;23.50;96.90;;;;;;5022900;28;20133;-67
2021/07/16 07:27:50;;;;;;;5.45;3.55;;;23.60;97.00;;;;;;5037664;28;20550;-67
2021/07/16 07:30:16;;;;;;;6.65;4.35;;;23.60;97.10;;;;;;5038205;28;20037;-67
2021/07/16 07:32:42;;;;;;;6.90;5.18;;;23.70;96.50;;;;;;5020023;28;20036;-67
2021/07/16 07:35:08;;;;;;;5.50;4.20;;;23.80;95.80;;;;;;5061994;28;20470;-67
2021/07/16 07:37:34;;;;;;;7.68;4.20;;;23.80;95.90;;;;;;5037294;28;20489;-67
2021/07/16 07:40:00;;;;;;;5.47;4.38;;;23.90;95.50;;;;;;5039507;28;20044;-67
2021/07/16 07:42:26;;;;;;;6.63;3.80;;;23.90;95.10;;;;;;5032850;28;20124;-67
2021/07/16 07:44:53;;;;;;;4.82;3.50;;;24.00;93.70;;;;;;5029227;28;20124;-67
2021/07/16 07:47:20;;;;;;;6.35;4.00;;;24.00;94.30;;;;;;5031818;28;20052;-66
2021/07/16 07:49:46;;;;;;;6.50;3.70;;;24.10;94.10;;;;;;5034217;28;20121;-66
2021/07/16 07:52:12;;;;;;;7.55;4.03;;;24.10;93.80;;;;;;5036367;28;20048;-66
2021/07/16 07:54:38;;;;;;;5.47;4.00;;;24.20;94.00;;;;;;5037132;28;20048;-67
2021/07/16 07:57:03;;;;;;;6.55;4.55;;;24.20;93.80;;;;;;5031951;28;20049;-67
2021/07/16 07:59:29;;;;;;;6.88;4.05;;;24.30;93.80;;;;;;5045676;28;20037;-66
2021/07/16 08:01:55;;;;;;;5.65;4.60;;;24.40;93.60;;;;;;5041146;28;20071;-66
2021/07/16 08:04:21;;;;;;;6.38;4.97;;;24.40;93.50;;;;;;5024812;28;20030;-66
2021/07/16 08:06:46;;;;;;;10.23;4.85;;;24.40;93.20;;;;;;5032748;28;20132;-66
2021/07/16 08:09:12;;;;;;;6.55;3.95;;;24.50;93.10;;;;;;5031890;28;20026;-66
2021/07/16 08:11:38;;;;;;;12.07;4.45;;;24.50;92.80;;;;;;5032915;28;20065;-66
2021/07/16 08:14:03;;;;;;;5.35;4.40;;;24.60;92.80;;;;;;5034959;28;20547;-67
2021/07/16 08:16:29;;;;;;;5.75;4.00;;;24.70;92.30;;;;;;5042206;28;20056;-66
2021/07/16 08:19:34;;;;;;;5.68;4.22;;;24.60;92.50;;;;;;5040038;28;20041;-66
2021/07/16 08:22:00;;;;;;;;;;;24.70;92.30;;;;;;5019800;28;20049;-66
2021/07/16 08:24:26;;;;;;;9.68;4.80;;;24.70;91.90;;;;;;5032353;28;19928;-66
2021/07/16 08:26:51;;;;;;;6.78;5.80;;;24.80;92.10;;;;;;5026467;28;20056;-66
2021/07/16 08:29:18;;;;;;;8.65;5.45;;;24.80;91.40;;;;;;5027258;28;20499;-66
2021/07/16 08:31:44;;;;;;;9.73;5.47;;;24.90;91.20;;;;;;5032442;28;20060;-67
2021/07/16 08:34:10;;;;;;;9.93;4.78;;;24.80;91.20;;;;;;5022358;28;20114;-66
2021/07/16 08:36:36;;;;;;;7.32;4.22;;;24.80;90.60;;;;;;5029130;28;20040;-67
2021/07/16 08:39:05;;;;;;;6.07;4.35;;;25.10;90.60;;;;;;5051430;28;20808;-67
2021/07/16 08:41:33;;;;;;;5.90;4.43;;;25.20;90.10;;;;;;5046434;28;20052;-66
2021/07/16 08:43:58;;;;;;;8.43;4.93;;;25.20;90.20;;;;;;5030954;28;20052;-66
2021/07/16 08:46:24;;;;;;;12.25;5.00;;;25.30;90.00;;;;;;5028859;28;20664;-66
2021/07/16 08:48:50;;;;;;;9.07;5.40;;;25.40;89.60;;;;;;5033993;28;20454;-66
2021/07/16 08:51:21;;;;;;;6.97;6.13;;;25.40;89.20;;;;;;5038795;28;20296;-66
2021/07/16 08:53:54;;;;;;;6.55;5.00;;;25.60;88.30;;;;;;5022040;28;20116;-67
2021/07/16 08:56:25;;;;;;;9.65;6.47;;;25.60;88.60;;;;;;5039851;28;20052;-67
2021/07/16 08:58:51;;;;;;;8.73;4.72;;;25.60;87.20;;;;;;5025992;28;20108;-66
2021/07/16 09:01:17;;;;;;;6.32;5.10;;;25.70;88.10;;;;;;5032970;28;20047;-67
2021/07/16 09:04:03;;;;;;;8.15;5.88;;;25.80;87.60;;;;;;5032175;28;20045;-67
2021/07/16 09:06:54;;;;;;;6.38;4.35;;;26.00;85.40;;;;;;5006962;28;20565;-67
2021/07/16 09:09:37;;;;;;;9.18;4.28;;;26.10;84.40;;;;;;5034375;28;20041;-67
2021/07/16 09:12:09;;;;;;;7.70;5.45;;;26.30;85.00;;;;;;5042621;28;20447;-67
2021/07/16 09:14:36;;;;;;;7.82;4.28;;;26.40;83.80;;;;;;5023637;28;20041;-66
2021/07/16 09:17:07;;;;;;;10.60;4.68;;;26.50;83.70;;;;;;5035964;28;20129;-67
2021/07/16 09:19:56;;;;;;;6.65;4.60;;;26.50;82.60;;;;;;5036616;28;20148;-67
2021/07/16 09:22:33;;;;;;;6.68;5.10;;;26.70;81.10;;;;;;5032074;28;20052;-67
2021/07/16 09:25:03;;;;;;;8.65;5.10;;;26.70;80.80;;;;;;5025635;28;20095;-66
2021/07/16 09:27:30;;;;;;;8.25;4.60;;;26.70;81.00;;;;;;5039161;28;20041;-67
2021/07/16 09:30:27;;;;;;;8.30;5.35;;;26.80;80.80;;;;;;5014633;28;20040;-66
2021/07/16 09:33:04;;;;;;;9.43;5.30;;;26.80;79.40;;;;;;5025013;28;20059;-66
2021/07/16 09:35:39;;;;;;;7.68;5.22;;;26.40;81.00;;;;;;5038335;28;20044;-66
2021/07/16 09:38:13;;;;;;;9.18;5.28;;;26.20;81.90;;;;;;5035043;28;20040;-67
2021/07/16 09:40:46;;;;;;;;;;;25.90;81.50;;;;;;5037008;28;20095;-66
2021/07/16 09:43:17;;;;;;;5.88;5.38;;;25.80;83.80;;;;;;5052207;28;19917;-67
2021/07/16 09:45:44;;;;;;;8.80;4.63;;;25.70;82.90;;;;;;5048356;28;20033;-66
2021/07/16 09:48:48;;;;;;;7.15;5.88;;;25.70;85.30;;;;;;5039316;28;20042;-68
2021/07/16 09:51:20;;;;;;;7.67;6.27;;;25.70;82.70;;;;;;4988882;28;20391;-66
2021/07/16 09:53:48;;;;;;;9.20;5.72;;;25.70;82.60;;;;;;5048445;28;20033;-67
2021/07/16 09:56:22;;;;;;;7.93;5.22;;;25.80;83.80;;;;;;5040756;28;20043;-66
2021/07/16 09:58:49;;;;;;;12.15;4.85;;;26.20;81.80;;;;;;5039313;28;20045;-67
2021/07/16 10:01:15;;;;;;;7.05;4.25;;;26.50;79.10;;;;;;5040146;28;20037;-67
2021/07/16 10:03:42;;;;;;;8.68;4.53;;;26.50;77.60;;;;;;5027061;28;20033;-67
2021/07/16 10:06:13;;;;;;;6.25;3.80;;;26.80;77.20;;;;;;5031180;28;20069;-68
2021/07/16 10:08:40;;;;;;;7.20;4.45;;;27.00;74.20;;;;;;5029749;28;20049;-67
2021/07/16 10:11:07;;;;;;;7.07;4.47;;;27.00;73.10;;;;;;4992165;28;20116;-67
2021/07/16 10:13:35;;;;;;;8.98;5.50;;;26.90;72.90;;;;;;5031226;28;20040;-67
2021/07/16 10:16:03;;;;;;;5.10;4.20;;;26.90;72.90;;;;;;5031358;28;20127;-67
2021/07/16 10:18:32;;;;;;;5.88;4.05;;;27.00;72.40;;;;;;5046303;28;20049;-67
2021/07/16 10:20:58;;;;;;;6.47;4.63;;;27.20;73.10;;;;;;5038741;28;20515;-67
2021/07/16 10:23:25;;;;;;;6.13;4.07;;;27.50;71.40;;;;;;5027794;28;20048;-67
2021/07/16 10:26:07;;;;;;;5.80;4.78;;;27.80;70.40;;;;;;5018678;28;20045;-66
2021/07/16 10:28:43;;;;;;;4.20;3.33;;;27.90;68.20;;;;;;5031329;28;20386;-67
2021/07/16 10:31:33;;;;;;;4.75;3.08;;;28.10;68.30;;;;;;5042274;28;20844;-67
2021/07/16 10:34:01;;;;;;;4.80;3.65;;;28.30;67.50;;;;;;4995111;28;20546;-66
2021/07/16 10:36:45;;;;;;;7.70;4.80;;;28.40;67.20;;;;;;5033623;28;20398;-67
2021/07/16 10:39:22;;;;;;;6.32;3.63;;;28.50;66.10;;;;;;5045635;28;20057;-67
2021/07/16 10:41:48;;;;;;;4.50;3.80;;;28.60;66.10;;;;;;5042709;28;20074;-66
2021/07/16 10:44:35;;;;;;;4.85;3.97;;;28.60;65.20;;;;;;5027451;28;20542;-66
2021/07/16 10:47:00;;;;;;;4.88;4.20;;;28.60;65.00;;;;;;5001230;28;20037;-66
2021/07/16 10:49:52;;;;;;;9.10;4.80;;;28.80;63.70;;;;;;5036469;28;20037;-66
2021/07/16 10:52:44;;;;;;;7.95;5.70;;;28.50;60.80;;;;;;5045259;28;20067;-63
2021/07/16 10:55:11;;;;;;;4.93;4.53;;;28.80;62.70;;;;;;5029153;28;20033;-67
2021/07/16 10:57:41;;;;;;;7.50;4.78;;;29.10;63.80;;;;;;5035504;28;20474;-67
2021/07/16 11:00:09;;;;;;;5.70;4.20;;;29.30;61.50;;;;;;5045104;28;20041;-66
2021/07/16 11:02:41;;;;;;;4.93;4.00;;;29.70;60.30;;;;;;5037081;28;20064;-67
2021/07/16 11:05:32;;;;;;;6.57;3.92;;;29.60;58.90;;;;;;5037911;28;20045;-67
2021/07/16 11:08:01;;;;;;;5.60;4.40;;;29.80;57.60;;;;;;5005044;28;20029;-67
2021/07/16 11:10:45;;;;;;;6.63;4.35;;;31.80;55.30;;;;;;5044829;28;20090;-67
2021/07/16 11:13:50;;;;;;;7.43;5.32;;;32.90;53.60;;;;;;5028343;28;20124;-67
2021/07/16 11:16:15;;;;;;;9.45;6.03;;;34.90;48.80;;;;;;4991386;28;20471;-67
2021/07/16 11:18:55;;;;;;;15.50;5.72;;;36.00;61.00;;;;;;5033681;28;20044;-67
2021/07/16 11:21:41;;;;;;;9.68;5.07;;;36.30;41.70;;;;;;5023887;28;20053;-66
2021/07/16 11:27:20;;;;;;;10.45;6.38;;;36.30;41.20;;;;;;5040131;28;20467;-67
2021/07/16 11:29:50;;;;;;;7.47;6.18;;;33.80;42.40;;;;;;5004727;28;20359;-66
2021/07/16 11:32:34;;;;;;;8.30;6.15;;;32.00;53.60;;;;;;5054171;28;20052;-67
2021/07/16 11:35:05;;;;;;;9.93;5.38;;;30.50;49.10;;;;;;5015629;28;20498;-67
2021/07/16 11:37:30;;;;;;;9.20;6.22;;;30.20;51.90;;;;;;5043600;28;20406;-66
2021/07/16 11:40:21;;;;;;;8.02;5.35;;;30.20;53.20;;;;;;5048265;28;20037;-67
2021/07/16 11:42:51;;;;;;;7.25;5.80;;;30.70;50.60;;;;;;5024659;28;20187;-66
2021/07/16 11:45:21;;;;;;;5.55;4.85;;;31.30;49.40;;;;;;5043859;28;20041;-66
2021/07/16 11:47:47;;;;;;;6.70;4.65;;;31.30;48.30;;;;;;5042521;28;20044;-67
2021/07/16 11:50:17;;;;;;;8.27;5.88;;;30.80;50.40;;;;;;5045779;28;20045;-67
2021/07/16 11:52:47;;;;;;;10.35;5.65;;;30.50;50.80;;;;;;5040680;28;20037;-66
2021/07/16 11:55:12;;;;;;;8.30;4.35;;;30.10;52.00;;;;;;5024378;28;20040;-66
2021/07/16 11:57:48;;;;;;;7.70;4.10;;;29.90;52.60;;;;;;5042695;28;20682;-66
2021/07/16 12:00:15;;;;;;;5.93;5.22;;;29.80;53.50;;;;;;5032808;28;20037;-66
2021/07/16 12:02:41;;;;;;;8.85;5.28;;;29.50;53.30;;;;;;5012917;28;20029;-66
2021/07/16 12:05:07;;;;;;;10.13;6.18;;;30.00;53.20;;;;;;5017520;28;20407;-66
2021/07/16 12:07:40;;;;;;;9.50;5.43;;;30.20;53.10;;;;;;5021376;28;20145;-66
2021/07/16 12:10:18;;;;;;;5.82;4.88;;;29.80;53.00;;;;;;5028271;28;20041;-66
2021/07/16 12:12:44;;;;;;;7.47;4.63;;;31.60;49.50;;;;;;5026913;28;20048;-66
2021/07/16 12:15:23;;;;;;;5.88;4.50;;;31.20;51.40;;;;;;5046316;28;20425;-66
2021/07/16 12:17:55;;;;;;;5.82;4.75;;;34.40;47.00;;;;;;5031298;28;20049;-67
2021/07/16 12:20:39;;;;;;;4.70;4.25;;;36.10;42.00;;;;;;5038710;28;20044;-67
2021/07/16 12:23:10;;;;;;;5.05;4.25;;;35.80;39.60;;;;;;5033670;28;20048;-67
2021/07/16 12:25:37;;;;;;;7.70;4.10;;;37.20;39.70;;;;;;5046454;28;20041;-67
2021/07/16 12:28:49;;;;;;;4.70;3.97;;;34.90;41.40;;;;;;5060068;28;20034;-67
2021/07/16 12:31:20;;;;;;;4.35;3.42;;;35.10;38.60;;;;;;5016157;28;20037;-67
2021/07/16 12:33:46;;;;;;;9.93;4.68;;;33.90;41.60;;;;;;5048246;28;20414;-67
2021/07/16 12:36:26;;;;;;;5.28;3.63;;;33.50;42.40;;;;;;5029666;28;20053;-67
2021/07/16 12:38:52;;;;;;;6.40;3.20;;;32.70;42.40;;;;;;5026941;28;20038;-67
2021/07/16 12:41:22;;;;;;;6.50;3.03;;;32.30;44.10;;;;;;5025065;28;20055;-67
2021/07/16 12:43:48;;;;;;;5.78;3.25;;;33.80;42.00;;;;;;5027440;28;20026;-67
2021/07/16 12:46:23;;;;;;;4.53;3.00;;;35.30;40.00;;;;;;5038661;28;20033;-67
2021/07/16 12:48:49;;;;;;;3.00;2.80;;;35.70;37.70;;;;;;5024999;28;20037;-65
2021/07/16 12:51:18;;;;;;;4.35;2.80;;;33.70;39.30;;;;;;5046865;28;20045;-67
2021/07/16 12:53:50;;;;;;;5.72;3.10;;;32.50;41.80;;;;;;5041562;28;20082;-67
2021/07/16 12:56:21;;;;;;;4.93;2.47;;;33.90;40.10;;;;;;5049436;28;20555;-67
2021/07/16 12:58:52;;;;;;;5.05;2.50;;;35.80;37.30;;;;;;5023422;28;20037;-67
2021/07/16 13:01:32;;;;;;;5.50;2.67;;;37.70;33.70;;;;;;5030021;28;20034;-67
2021/07/16 13:04:18;;;;;;;5.13;2.53;;;38.60;31.70;;;;;;5018411;28;20034;-67
2021/07/16 13:06:44;;;;;;;5.05;2.85;;;39.10;30.10;;;;;;5026288;28;20038;-67